Time;durP1;ratioP1;P1;durP2;ratioP2;P2;SDS_P1;SDS_P2;PMS_P1;PMS_P2;Temp;Humidity;BMP_temperature;BMP_pressure;BME280_temperature;BME280_humidity;BME280_pressure;Samples;Min_cycle;Max_cycle;Signal;HPM_P1;HPM_P2
2021/04/02 00:01:42;;;;;;;20.10;13.00;;;;;;;10.32;72.25;97693.98;1859319;77;21102;-73
2021/04/02 00:04:08;;;;;;;32.15;14.10;;;;;;;10.33;72.70;97695.59;1859498;77;21134;-73
2021/04/02 00:06:34;;;;;;;28.57;14.10;;;;;;;10.32;72.87;97687.22;1859326;77;21129;-73
2021/04/02 00:09:01;;;;;;;25.77;12.93;;;;;;;10.23;73.53;97682.97;1859339;77;21106;-73
2021/04/02 00:11:27;;;;;;;24.70;14.63;;;;;;;10.24;73.56;97692.70;1859323;77;21039;-73
2021/04/02 00:13:54;;;;;;;27.05;13.90;;;;;;;10.17;74.23;97683.55;1859519;77;21066;-73
2021/04/02 00:16:20;;;;;;;21.65;13.00;;;;;;;10.11;73.79;97687.39;1859297;77;21134;-74
2021/04/02 00:18:46;;;;;;;22.13;12.98;;;;;;;10.06;74.00;97689.32;1859463;77;21190;-73
2021/04/02 00:21:14;;;;;;;28.45;15.08;;;;;;;10.01;75.07;97685.32;1859283;77;21016;-73
2021/04/02 00:23:40;;;;;;;21.50;12.95;;;;;;;9.94;74.79;97673.46;1859382;77;21103;-74
2021/04/02 00:26:15;;;;;;;28.57;14.40;;;;;;;9.90;74.53;97675.11;1859384;77;21151;-74
2021/04/02 00:28:41;;;;;;;25.88;13.80;;;;;;;9.82;73.54;97679.22;1859415;77;21095;-72
2021/04/02 00:31:08;;;;;;;27.25;13.22;;;;;;;9.70;75.54;97678.78;1859298;77;21574;-72
2021/04/02 00:33:34;;;;;;;29.50;14.47;;;;;;;9.73;75.30;97678.76;1784038;80;21114;-72
2021/04/02 00:36:01;;;;;;;23.22;13.75;;;;;;;9.74;74.32;97673.61;1787571;80;21074;-72
2021/04/02 00:38:28;;;;;;;26.77;13.53;;;;;;;9.75;75.45;97678.77;1784028;80;21099;-72
2021/04/02 00:40:58;;;;;;;24.87;14.65;;;;;;;9.74;76.89;97674.96;1787618;80;21055;-72
2021/04/02 00:43:29;;;;;;;24.75;14.53;;;;;;;9.74;77.31;97690.67;1784144;80;21200;-73
2021/04/02 00:45:55;;;;;;;23.80;13.45;;;;;;;9.75;78.35;97683.37;1786783;80;21487;-73
2021/04/02 00:48:21;;;;;;;22.90;13.70;;;;;;;9.73;75.22;97674.16;1784034;80;21154;-73
2021/04/02 00:51:00;;;;;;;29.65;14.85;;;;;;;9.63;76.23;97663.41;1787633;80;21023;-73
2021/04/02 00:53:29;;;;;;;29.25;15.70;;;;;;;9.57;78.39;97668.59;1784238;80;21111;-72
2021/04/02 00:55:55;;;;;;;28.47;15.00;;;;;;;9.60;76.14;97668.85;1787849;80;22050;-74
2021/04/02 00:58:25;;;;;;;28.25;16.57;;;;;;;9.66;75.72;97670.18;1783977;80;21126;-74
2021/04/02 01:00:51;;;;;;;31.00;15.95;;;;;;;9.76;75.44;97676.86;1787617;80;21143;-73
2021/04/02 01:03:19;;;;;;;25.45;14.23;;;;;;;9.78;76.48;97671.42;1783953;80;21126;-73
2021/04/02 01:05:47;;;;;;;28.85;16.35;;;;;;;9.79;75.79;97675.73;1787870;80;21043;-73
2021/04/02 01:08:29;;;;;;;27.52;14.10;;;;;;;9.79;75.12;97678.45;1783966;80;21110;-73
2021/04/02 01:10:56;;;;;;;32.90;16.87;;;;;;;9.75;76.74;97699.05;1787622;80;21099;-73
2021/04/02 01:13:44;;;;;;;32.78;17.92;;;;;;;9.81;77.54;97726.32;1784025;80;21106;-73
2021/04/02 01:16:18;;;;;;;35.15;18.87;;;;;;;9.84;75.96;97706.83;1758338;80;21087;-72
2021/04/02 01:18:56;;;;;;;33.63;18.65;;;;;;;9.83;75.85;97707.92;1778345;80;21023;-73
2021/04/02 01:21:32;;;;;;;38.90;19.62;;;;;;;9.80;77.15;97710.38;1787666;80;21269;-72
2021/04/02 01:24:22;;;;;;;34.85;18.32;;;;;;;9.75;78.45;97717.19;1753437;80;21111;-72
2021/04/02 01:27:16;;;;;;;37.40;18.62;;;;;;;9.68;79.39;97722.91;1787564;80;21154;-73
2021/04/02 01:29:55;;;;;;;47.58;22.95;;;;;;;9.55;82.62;97726.22;1783294;80;21559;-73
2021/04/02 01:32:31;;;;;;;40.20;22.13;;;;;;;9.51;83.81;97728.70;1787302;80;21126;-72
2021/04/02 01:35:02;;;;;;;28.07;18.30;;;;;;;9.52;81.91;97715.98;1784065;80;21193;-73
2021/04/02 01:37:48;;;;;;;40.52;20.50;;;;;;;9.63;80.55;97710.75;1786910;80;21583;-73
2021/04/02 01:40:16;;;;;;;35.68;21.55;;;;;;;9.72;80.18;97709.61;1784069;80;21079;-73
2021/04/02 01:42:43;;;;;;;36.70;20.05;;;;;;;9.80;79.30;97709.83;1787651;80;21084;-73
2021/04/02 01:45:12;;;;;;;31.37;20.00;;;;;;;9.87;79.09;97713.56;1784109;80;21133;-73
2021/04/02 01:47:38;;;;;;;35.95;20.85;;;;;;;9.95;78.34;97709.45;1787959;80;21420;-73
2021/04/02 01:50:06;;;;;;;37.10;21.02;;;;;;;10.01;78.12;97710.49;1753715;80;21055;-73
2021/04/02 01:52:33;;;;;;;35.80;22.25;;;;;;;10.01;78.17;97711.04;1787962;80;21480;-73
2021/04/02 01:54:59;;;;;;;41.55;23.00;;;;;;;10.03;78.42;97711.01;1784186;80;21047;-73
2021/04/02 01:57:25;;;;;;;43.85;22.05;;;;;;;10.00;78.89;97721.06;1787620;80;21052;-73
2021/04/02 01:59:51;;;;;;;38.48;22.27;;;;;;;9.99;78.30;97711.84;1753490;80;21261;-73
2021/04/02 02:02:17;;;;;;;42.23;22.60;;;;;;;9.97;79.19;97713.48;1787636;80;21143;-73
2021/04/02 02:04:44;;;;;;;44.25;22.90;;;;;;;9.97;78.04;97712.67;1784126;80;21122;-73
2021/04/02 02:07:10;;;;;;;34.48;21.40;;;;;;;9.96;77.87;97713.23;1756977;80;21094;-73
2021/04/02 02:09:40;;;;;;;47.78;21.68;;;;;;;9.95;79.16;97717.03;1784136;80;21531;-73
2021/04/02 02:12:08;;;;;;;34.00;19.95;;;;;;;9.95;79.73;97718.92;1787815;80;22028;-73
2021/04/02 02:14:36;;;;;;;36.80;20.27;;;;;;;9.85;80.88;97713.05;1784184;80;21091;-73
2021/04/02 02:17:06;;;;;;;33.60;21.07;;;;;;;9.85;80.25;97708.45;1787696;80;21131;-73
2021/04/02 02:19:36;;;;;;;28.90;16.90;;;;;;;9.83;80.76;97715.23;1784134;80;21090;-73
2021/04/02 02:22:06;;;;;;;32.10;17.50;;;;;;;9.64;82.20;97712.37;1787735;80;21118;-73
2021/04/02 02:24:34;;;;;;;34.38;18.25;;;;;;;9.64;81.36;97712.91;1783799;80;21200;-73
2021/04/02 02:27:01;;;;;;;29.57;18.70;;;;;;;9.61;80.62;97708.34;1787927;80;21114;-73
2021/04/02 02:29:27;;;;;;;37.30;17.52;;;;;;;9.54;81.68;97710.54;1784124;80;21161;-73
2021/04/02 02:31:53;;;;;;;28.95;18.32;;;;;;;9.49;81.30;97713.30;1787645;80;21051;-73
2021/04/02 02:34:19;;;;;;;32.80;18.05;;;;;;;9.43;81.04;97713.05;1753480;80;21146;-73
2021/04/02 02:36:46;;;;;;;28.02;16.57;;;;;;;9.32;82.53;97712.31;1787693;80;21179;-73
2021/04/02 02:39:14;;;;;;;30.70;16.82;;;;;;;9.38;80.69;97715.77;1784070;80;21162;-73
2021/04/02 02:41:40;;;;;;;31.20;16.70;;;;;;;9.40;82.09;97716.84;1787643;80;21110;-73
2021/04/02 02:44:07;;;;;;;33.00;17.20;;;;;;;9.41;80.77;97717.94;1784089;80;21142;-73
2021/04/02 02:46:33;;;;;;;30.70;17.62;;;;;;;9.47;80.31;97717.34;1787727;80;21103;-73
2021/04/02 02:49:12;;;;;;;39.20;18.62;;;;;;;9.56;79.80;97721.08;1784155;80;21971;-72
2021/04/02 02:51:39;;;;;;;36.80;20.27;;;;;;;9.65;79.71;97713.98;1787606;80;21126;-73
2021/04/02 02:54:09;;;;;;;34.95;17.75;;;;;;;9.66;79.26;97718.88;1784182;80;21098;-73
2021/04/02 02:56:36;;;;;;;32.73;17.87;;;;;;;9.72;79.04;97717.73;1787520;80;21508;-73
2021/04/02 02:59:05;;;;;;;40.70;20.85;;;;;;;9.81;78.91;97716.04;1761182;81;21113;-73
2021/04/02 03:01:31;;;;;;;32.58;18.98;;;;;;;9.85;78.79;97720.63;1746749;81;21266;-73
2021/04/02 03:03:57;;;;;;;33.15;18.27;;;;;;;9.90;78.64;97719.21;1761123;81;21182;-73
2021/04/02 03:06:23;;;;;;;34.43;19.70;;;;;;;9.93;78.34;97718.41;1772758;81;21048;-73
2021/04/02 03:08:52;;;;;;;34.67;21.00;;;;;;;9.89;77.97;97714.89;1761189;81;21483;-73
2021/04/02 03:11:21;;;;;;;39.98;21.33;;;;;;;9.82;78.17;97708.98;1747421;81;21111;-73
2021/04/02 03:13:49;;;;;;;39.42;22.40;;;;;;;9.83;78.00;97709.28;1761331;81;21196;-73
2021/04/02 03:16:15;;;;;;;33.42;18.98;;;;;;;9.84;78.64;97710.89;1772664;81;21111;-73
2021/04/02 03:18:41;;;;;;;34.90;21.15;;;;;;;9.82;78.96;97707.64;1761117;81;21145;-73
2021/04/02 03:21:08;;;;;;;29.48;17.95;;;;;;;9.75;81.16;97709.88;1772842;81;21044;-73
2021/04/02 03:23:35;;;;;;;28.32;17.70;;;;;;;9.71;81.29;97710.16;1733555;81;21412;-73
2021/04/02 03:26:02;;;;;;;34.18;19.45;;;;;;;9.72;80.07;97709.61;1772876;81;21195;-73
2021/04/02 03:28:28;;;;;;;35.33;17.92;;;;;;;9.72;80.46;97710.97;1761092;81;21403;-73
2021/04/02 03:30:54;;;;;;;37.38;20.88;;;;;;;9.72;81.49;97709.07;1772839;81;21088;-73
2021/04/02 03:33:26;;;;;;;35.52;19.00;;;;;;;9.74;80.85;97712.33;1761087;81;21101;-73
2021/04/02 03:35:56;;;;;;;35.55;22.67;;;;;;;9.67;81.21;97706.41;1772588;80;21143;-73
2021/04/02 03:38:22;;;;;;;34.53;21.57;;;;;;;9.70;79.96;97712.61;1761076;81;21246;-73
2021/04/02 03:40:49;;;;;;;39.30;21.17;;;;;;;9.61;81.14;97710.23;1772773;81;21572;-73
2021/04/02 03:43:15;;;;;;;37.88;22.90;;;;;;;9.64;79.55;97711.02;1761070;81;21042;-72
2021/04/02 03:45:42;;;;;;;44.13;25.40;;;;;;;9.60;79.54;97707.27;1772848;81;21500;-73
2021/04/02 03:48:10;;;;;;;181.65;99.30;;;;;;;9.59;80.00;97704.30;1761086;81;21118;-73
2021/04/02 03:50:38;;;;;;;54.45;37.42;;;;;;;9.62;80.87;97709.14;1772825;81;22057;-73
2021/04/02 03:53:16;;;;;;;53.98;31.50;;;;;;;9.58;81.46;97704.85;1761143;81;21032;-73
2021/04/02 03:55:44;;;;;;;58.30;29.27;;;;;;;9.53;82.55;97706.77;1772765;81;21099;-72
2021/04/02 03:58:12;;;;;;;48.77;28.87;;;;;;;9.48;82.63;97707.59;1749529;80;21511;-72
2021/04/02 04:00:45;;;;;;;56.73;34.13;;;;;;;9.47;82.58;97711.39;1799214;79;21027;-72
2021/04/02 04:03:12;;;;;;;58.38;36.95;;;;;;;9.41;83.28;97713.08;1789885;80;21205;-72
2021/04/02 04:05:38;;;;;;;58.73;34.08;;;;;;;9.34;84.48;97709.32;1799014;79;21046;-72
2021/04/02 04:08:07;;;;;;;60.78;32.88;;;;;;;9.36;83.68;97713.90;1789856;80;21019;-72
2021/04/02 04:10:34;;;;;;;65.10;34.90;;;;;;;9.18;85.70;97723.45;1799062;79;21479;-73
2021/04/02 04:13:00;;;;;;;58.08;35.03;;;;;;;9.22;85.05;97728.56;1736086;80;21078;-73
2021/04/02 04:15:26;;;;;;;57.53;36.63;;;;;;;9.25;84.48;97721.81;1799162;79;21201;-73
2021/04/02 04:17:52;;;;;;;65.62;44.25;;;;;;;9.17;85.72;97730.50;1760877;80;21126;-73
2021/04/02 04:20:19;;;;;;;64.82;37.23;;;;;;;9.07;86.43;97727.30;1799175;79;21530;-73
2021/04/02 04:22:47;;;;;;;58.65;34.10;;;;;;;9.11;85.30;97730.24;1789824;80;21039;-72
2021/04/02 04:25:14;;;;;;;60.48;35.20;;;;;;;9.03;86.39;97737.84;1770370;79;21079;-73
2021/04/02 04:27:42;;;;;;;53.70;32.10;;;;;;;8.94;86.46;97731.93;1761151;80;22091;-73
2021/04/02 04:30:11;;;;;;;65.83;33.25;;;;;;;8.97;86.33;97737.61;1799132;79;21562;-73
2021/04/02 04:32:39;;;;;;;56.58;32.93;;;;;;;8.98;86.20;97737.06;1789962;80;21058;-73
2021/04/02 04:35:18;;;;;;;62.05;37.88;;;;;;;8.99;86.19;97744.09;1799257;79;21408;-73
2021/04/02 04:37:45;;;;;;;56.75;35.95;;;;;;;8.96;86.36;97729.75;1790088;80;21471;-72
2021/04/02 04:40:20;;;;;;;56.68;33.08;;;;;;;9.00;86.08;97735.70;1799156;79;21199;-72
2021/04/02 04:42:47;;;;;;;59.30;38.63;;;;;;;9.07;84.86;97740.01;1760905;80;21452;-74
2021/04/02 04:45:21;;;;;;;53.00;29.95;;;;;;;9.09;85.61;97748.64;1799143;79;21090;-73
2021/04/02 04:47:48;;;;;;;52.75;30.35;;;;;;;9.11;85.44;97743.22;1789935;80;21468;-72
2021/04/02 04:50:15;;;;;;;54.08;31.85;;;;;;;9.07;85.91;97747.57;1799074;79;21094;-72
2021/04/02 04:52:53;;;;;;;62.88;37.48;;;;;;;9.03;86.08;97756.75;1789830;80;22082;-72
2021/04/02 04:55:20;;;;;;;63.23;44.00;;;;;;;8.96;86.09;97754.08;1799371;79;21471;-72
2021/04/02 04:57:47;;;;;;;62.83;37.78;;;;;;;9.06;84.88;97758.12;1788203;80;21240;-72
2021/04/02 05:00:14;;;;;;;67.65;39.88;;;;;;;9.06;84.95;97763.52;1787546;80;21087;-72
2021/04/02 05:02:43;;;;;;;63.20;34.05;;;;;;;9.02;85.52;97765.14;1784120;80;21507;-72
2021/04/02 05:05:14;;;;;;;78.22;44.05;;;;;;;9.07;84.42;97767.03;1787719;80;21508;-73
2021/04/02 05:07:40;;;;;;;56.80;37.75;;;;;;;8.93;85.57;97765.45;1783344;80;21079;-72
2021/04/02 05:10:08;;;;;;;59.30;34.20;;;;;;;8.99;85.82;97766.52;1787585;80;21046;-72
2021/04/02 05:12:34;;;;;;;57.67;33.08;;;;;;;8.96;85.75;97781.09;1753244;80;21166;-72
2021/04/02 05:15:00;;;;;;;63.90;31.77;;;;;;;8.84;86.10;97778.71;1787708;80;21055;-72
2021/04/02 05:17:26;;;;;;;55.17;31.10;;;;;;;8.90;85.36;97786.27;1784007;80;21202;-72
2021/04/02 05:19:52;;;;;;;36.35;24.55;;;;;;;8.83;86.64;97795.20;1787749;80;21603;-72
2021/04/02 05:22:18;;;;;;;23.27;16.20;;;;;;;8.75;84.28;97810.88;1784130;80;21182;-72
2021/04/02 05:24:45;;;;;;;22.02;13.85;;;;;;;8.55;83.39;97800.66;1787840;80;21169;-72
2021/04/02 05:27:11;;;;;;;29.63;18.45;;;;;;;8.45;83.27;97806.30;1784192;80;21153;-72
2021/04/02 05:29:37;;;;;;;36.68;23.92;;;;;;;8.46;83.89;97809.84;1787711;80;21535;-72
2021/04/02 05:32:04;;;;;;;19.50;12.20;;;;;;;8.41;83.63;97815.23;1784101;80;21138;-72
2021/04/02 05:34:30;;;;;;;17.52;10.43;;;;;;;8.20;82.51;97817.06;1787812;80;21083;-72
2021/04/02 05:36:56;;;;;;;12.65;7.87;;;;;;;8.26;83.49;97831.39;1784159;80;21114;-72
2021/04/02 05:39:22;;;;;;;11.55;7.72;;;;;;;8.15;82.62;97833.27;1787870;80;21130;-73
2021/04/02 05:41:56;;;;;;;8.50;6.62;;;;;;;8.12;83.18;97837.33;1784129;80;21466;-72
2021/04/02 05:44:27;;;;;;;11.60;6.85;;;;;;;7.85;83.22;97842.11;1787721;80;21154;-72
2021/04/02 05:46:53;;;;;;;15.30;10.58;;;;;;;7.73;83.58;97848.30;1782631;80;21555;-73
2021/04/02 05:49:21;;;;;;;11.05;6.33;;;;;;;7.70;83.60;97848.83;1787801;80;21515;-73
2021/04/02 05:51:48;;;;;;;9.70;6.92;;;;;;;7.62;83.37;97855.55;1816386;79;21000;-73
2021/04/02 05:54:18;;;;;;;11.12;7.00;;;;;;;7.51;83.40;97851.17;1784204;80;22047;-72
2021/04/02 05:56:45;;;;;;;9.05;6.97;;;;;;;7.47;83.76;97856.30;1753979;80;21051;-72
2021/04/02 05:59:11;;;;;;;18.10;14.23;;;;;;;7.55;83.45;97863.06;1784133;80;21095;-73
2021/04/02 06:01:37;;;;;;;23.38;15.43;;;;;;;7.52;83.33;97861.72;1787842;80;21027;-73
2021/04/02 06:04:03;;;;;;;28.77;18.57;;;;;;;7.41;83.49;97873.51;1784148;80;21027;-73
2021/04/02 06:06:29;;;;;;;14.23;9.40;;;;;;;7.41;83.33;97870.00;1787686;80;21292;-72
2021/04/02 06:08:56;;;;;;;18.65;12.05;;;;;;;7.30;83.54;97875.34;1784077;80;21420;-73
2021/04/02 06:11:22;;;;;;;37.03;22.93;;;;;;;7.29;83.19;97878.31;1756869;80;21091;-73
2021/04/02 06:13:48;;;;;;;14.78;10.98;;;;;;;7.30;83.69;97875.89;1784139;80;21052;-73
2021/04/02 06:16:14;;;;;;;17.82;10.80;;;;;;;7.33;83.52;97884.25;1787724;80;21484;-73
2021/04/02 06:18:41;;;;;;;42.65;22.50;;;;;;;7.22;84.46;97885.81;1753545;80;22037;-73
2021/04/02 06:21:08;;;;;;;22.35;11.50;;;;;;;7.26;84.17;97890.94;1787727;80;21043;-73
2021/04/02 06:23:36;;;;;;;14.65;10.60;;;;;;;7.16;84.52;97893.59;1784181;80;21472;-73
2021/04/02 06:26:13;;;;;;;17.70;12.35;;;;;;;7.23;83.88;97890.94;1787776;80;21114;-73
2021/04/02 06:28:41;;;;;;;14.15;8.33;;;;;;;7.29;83.78;97903.38;1784185;80;21099;-73
2021/04/02 06:31:11;;;;;;;10.23;7.05;;;;;;;7.37;83.85;97911.52;1787927;80;21135;-73
2021/04/02 06:33:52;;;;;;;9.83;7.78;;;;;;;7.08;84.67;97913.75;1816273;78;21099;-74
2021/04/02 06:36:24;;;;;;;8.03;6.25;;;;;;;6.89;84.93;97909.31;1784108;80;21559;-71
2021/04/02 06:38:54;;;;;;;10.43;7.25;;;;;;;6.77;85.30;97924.31;1784118;80;21107;-73
2021/04/02 06:41:20;;;;;;;13.15;8.55;;;;;;;6.71;86.46;97925.33;1784094;80;21086;-73
2021/04/02 06:43:48;;;;;;;10.58;7.12;;;;;;;6.57;86.40;97928.16;1784102;80;21247;-73
2021/04/02 06:46:24;;;;;;;10.70;7.47;;;;;;;6.45;85.77;97935.60;1784272;80;21063;-73
2021/04/02 06:48:55;;;;;;;10.30;7.28;;;;;;;6.22;87.08;97937.52;1784133;80;21118;-73
2021/04/02 06:51:23;;;;;;;11.55;7.25;;;;;;;6.16;87.33;97935.87;1784163;80;21115;-72
2021/04/02 06:53:53;;;;;;;9.85;6.65;;;;;;;6.11;87.81;97932.30;1784177;80;21520;-72
2021/04/02 06:56:20;;;;;;;9.35;6.35;;;;;;;6.07;87.66;97923.94;1784085;80;21188;-72
2021/04/02 06:58:46;;;;;;;9.00;6.78;;;;;;;6.11;87.16;97927.73;1786515;80;21031;-72
2021/04/02 07:01:16;;;;;;;8.55;6.22;;;;;;;5.95;87.35;97934.00;1790003;80;21166;-73
2021/04/02 07:03:44;;;;;;;10.32;8.53;;;;;;;5.96;87.01;97926.20;1789985;80;21126;-73
2021/04/02 07:06:11;;;;;;;9.98;6.47;;;;;;;6.03;86.67;97927.36;1790002;80;21102;-73
2021/04/02 07:08:40;;;;;;;8.50;6.75;;;;;;;5.88;87.07;97920.70;1789898;79;21196;-73
2021/04/02 07:11:06;;;;;;;11.45;8.28;;;;;;;5.92;86.84;97927.26;1789823;79;21027;-73
2021/04/02 07:13:35;;;;;;;14.25;9.60;;;;;;;6.00;86.78;97927.87;1789906;80;21086;-73
2021/04/02 07:16:02;;;;;;;;;;;;;;;6.01;86.31;97930.84;1792655;80;21463;-72
2021/04/02 07:18:29;;;;;;;12.33;8.88;;;;;;;5.86;86.72;97938.98;1789984;80;20584;-72
2021/04/02 07:20:55;;;;;;;12.10;9.25;;;;;;;5.84;86.48;97945.15;1789888;80;21260;-73
2021/04/02 07:23:21;;;;;;;13.15;9.05;;;;;;;5.88;87.27;97937.38;1789905;80;21043;-72
2021/04/02 07:25:48;;;;;;;13.32;8.85;;;;;;;5.88;86.54;97941.41;1789906;80;21051;-73
2021/04/02 07:28:14;;;;;;;9.18;6.78;;;;;;;5.83;86.67;97941.38;1789957;79;21590;-73
2021/04/02 07:30:40;;;;;;;11.55;7.67;;;;;;;5.72;86.26;97943.10;1736367;80;21520;-73
2021/04/02 07:33:08;;;;;;;9.50;7.00;;;;;;;5.83;85.99;97946.22;1789870;80;21205;-73
2021/04/02 07:35:38;;;;;;;10.97;6.43;;;;;;;5.97;85.71;97960.11;1790166;80;21082;-73
2021/04/02 07:38:07;;;;;;;10.25;8.08;;;;;;;5.98;85.06;97960.92;1789821;80;21527;-73
2021/04/02 07:40:34;;;;;;;8.85;7.53;;;;;;;5.89;84.73;97967.24;1761019;80;21471;-72
2021/04/02 07:43:08;;;;;;;11.05;7.87;;;;;;;5.99;84.68;97974.67;1789989;80;21106;-72
2021/04/02 07:45:36;;;;;;;9.33;6.80;;;;;;;6.02;84.47;97973.63;1789952;80;21515;-72
2021/04/02 07:48:15;;;;;;;9.80;6.92;;;;;;;5.97;83.75;97972.75;1761278;80;21101;-72
2021/04/02 07:50:46;;;;;;;12.13;8.48;;;;;;;6.01;83.80;97973.35;1760919;80;21126;-72
2021/04/02 07:53:20;;;;;;;8.38;5.75;;;;;;;5.87;83.00;97978.79;1789894;80;21098;-73
2021/04/02 07:56:09;;;;;;;9.25;7.10;;;;;;;5.93;83.19;97980.52;1828438;76;22691;-72
2021/04/02 07:58:44;;;;;;;8.88;6.25;;;;;;;5.94;82.99;97989.67;1786009;80;20984;-73
2021/04/02 08:01:10;;;;;;;7.10;5.12;;;;;;;5.87;82.61;97992.23;1785608;79;22111;-73
2021/04/02 08:03:36;;;;;;;8.68;5.97;;;;;;;5.89;82.99;97994.13;1785911;79;21568;-73
2021/04/02 08:06:32;;;;;;;6.87;5.90;;;;;;;5.76;83.45;97995.33;1785874;79;20913;-73
2021/04/02 08:08:59;;;;;;;8.60;6.33;;;;;;;5.79;83.30;97998.85;1785905;79;21447;-73
2021/04/02 08:11:37;;;;;;;8.85;6.35;;;;;;;5.97;83.11;98003.67;1785861;79;20865;-73
2021/04/02 08:14:09;;;;;;;8.75;6.75;;;;;;;5.82;83.46;98007.79;1785913;80;21972;-73
2021/04/02 08:16:55;;;;;;;10.00;7.55;;;;;;;5.76;83.00;98010.66;1785472;79;21452;-73
2021/04/02 08:19:33;;;;;;;10.83;8.07;;;;;;;5.68;83.15;98016.45;1786122;80;21047;-73
2021/04/02 08:22:08;;;;;;;11.43;8.70;;;;;;;5.72;83.16;98013.54;1785881;79;21126;-72
2021/04/02 08:24:40;;;;;;;13.60;8.43;;;;;;;5.78;83.07;98021.97;1785845;79;21098;-72
2021/04/02 08:27:07;;;;;;;15.90;9.43;;;;;;;5.93;82.79;98032.43;1785971;80;22295;-73
2021/04/02 08:29:35;;;;;;;14.10;9.53;;;;;;;5.97;82.96;98029.23;1785832;79;21845;-72
2021/04/02 08:32:07;;;;;;;14.43;9.68;;;;;;;5.92;82.94;98035.37;1786065;80;21491;-73
2021/04/02 08:34:34;;;;;;;15.45;10.38;;;;;;;5.81;82.91;98034.91;1785743;79;21023;-73
2021/04/02 08:37:04;;;;;;;15.85;10.45;;;;;;;5.73;83.46;98032.14;1785888;80;21103;-73
2021/04/02 08:39:30;;;;;;;18.98;12.45;;;;;;;5.65;83.88;98048.16;1784796;80;22097;-73
2021/04/02 08:42:02;;;;;;;15.63;10.40;;;;;;;5.61;83.85;98048.36;1785902;80;21155;-73
2021/04/02 08:44:33;;;;;;;19.65;12.65;;;;;;;5.51;84.01;98054.11;1785839;79;21492;-73
2021/04/02 08:47:01;;;;;;;15.83;10.85;;;;;;;5.54;85.02;98057.64;1785849;80;21090;-73
2021/04/02 08:49:37;;;;;;;18.77;12.28;;;;;;;5.29;85.19;98065.59;1786075;80;21109;-73
2021/04/02 08:52:13;;;;;;;14.20;9.48;;;;;;;5.32;84.72;98058.94;1757376;80;21278;-73
2021/04/02 08:54:40;;;;;;;16.62;11.03;;;;;;;5.22;84.74;98064.97;1758382;78;21097;-72
2021/04/02 08:57:11;;;;;;;18.23;10.45;;;;;;;5.20;84.77;98065.72;1791948;80;21102;-72
2021/04/02 08:59:43;;;;;;;21.23;15.85;;;;;;;5.23;84.62;98071.16;1791896;78;21126;-72
2021/04/02 09:02:09;;;;;;;18.27;9.50;;;;;;;5.19;84.38;98069.47;1791998;79;21102;-73
2021/04/02 09:04:36;;;;;;;12.90;9.33;;;;;;;5.24;83.70;98061.50;1791872;78;21139;-73
2021/04/02 09:07:02;;;;;;;12.45;9.68;;;;;;;5.17;83.98;98073.46;1791362;80;21063;-73
2021/04/02 09:09:30;;;;;;;12.95;8.70;;;;;;;5.08;83.82;98076.55;1765184;80;21086;-73
2021/04/02 09:12:05;;;;;;;20.05;12.20;;;;;;;5.03;84.40;98075.63;1791753;79;21118;-73
2021/04/02 09:14:32;;;;;;;20.12;14.25;;;;;;;5.14;84.42;98077.45;1791451;80;21086;-73
2021/04/02 09:16:58;;;;;;;22.80;13.98;;;;;;;5.20;84.58;98080.49;1791399;79;21118;-73
2021/04/02 09:19:25;;;;;;;21.12;15.45;;;;;;;5.24;84.98;98077.62;1791281;80;21038;-73
2021/04/02 09:21:53;;;;;;;30.75;18.12;;;;;;;5.18;84.50;98075.09;1739863;80;21094;-73
2021/04/02 09:24:20;;;;;;;21.12;13.88;;;;;;;5.20;83.97;98080.49;1791331;80;21046;-73
2021/04/02 09:26:46;;;;;;;21.33;10.58;;;;;;;5.31;83.88;98086.88;1791401;78;21011;-73
2021/04/02 09:29:14;;;;;;;13.45;10.00;;;;;;;5.41;83.57;98090.25;1791423;80;21272;-73
2021/04/02 09:31:44;;;;;;;13.48;9.90;;;;;;;5.42;83.61;98085.16;1791297;78;21026;-73
2021/04/02 09:34:21;;;;;;;13.98;10.70;;;;;;;5.54;83.32;98086.69;1791382;79;21110;-73
2021/04/02 09:36:47;;;;;;;13.83;10.80;;;;;;;5.55;83.17;98086.96;1791377;78;21126;-72
2021/04/02 09:39:24;;;;;;;15.45;10.38;;;;;;;5.56;82.86;98086.46;1791344;80;21071;-72
2021/04/02 09:41:59;;;;;;;14.93;10.32;;;;;;;5.51;82.96;98085.84;1790755;78;21651;-72
2021/04/02 09:44:32;;;;;;;20.50;11.55;;;;;;;5.49;82.65;98086.63;1791406;79;21074;-72
2021/04/02 09:47:11;;;;;;;14.50;9.00;;;;;;;5.54;83.17;98088.56;1791511;80;21484;-73
2021/04/02 09:49:37;;;;;;;16.02;11.05;;;;;;;5.53;82.69;98085.06;1791442;78;22149;-73
2021/04/02 09:52:05;;;;;;;13.05;9.55;;;;;;;5.64;82.71;98088.73;1791376;80;21117;-72
2021/04/02 09:54:31;;;;;;;16.12;9.88;;;;;;;5.68;83.13;98086.36;1792421;79;21129;-73
2021/04/02 09:57:01;;;;;;;13.50;9.28;;;;;;;5.81;82.54;98093.56;1797217;79;21498;-73
2021/04/02 09:59:27;;;;;;;12.90;10.35;;;;;;;5.78;82.35;98094.56;1797192;79;21051;-73
2021/04/02 10:01:53;;;;;;;14.55;10.98;;;;;;;5.78;82.18;98090.00;1797205;78;21558;-73
2021/04/02 10:04:19;;;;;;;19.60;13.62;;;;;;;5.82;82.07;98083.62;1797207;79;21112;-73
2021/04/02 10:06:46;;;;;;;18.05;13.72;;;;;;;5.92;82.09;98081.91;1797300;78;21184;-73
2021/04/02 10:09:12;;;;;;;14.87;10.90;;;;;;;6.01;82.00;98084.17;1797109;79;21177;-73
2021/04/02 10:11:48;;;;;;;16.12;11.70;;;;;;;6.07;81.92;98084.53;1797283;78;21471;-73
2021/04/02 10:14:16;;;;;;;17.82;12.18;;;;;;;6.11;81.60;98081.08;1797282;79;21474;-73
2021/04/02 10:16:45;;;;;;;19.10;13.10;;;;;;;6.13;81.07;98085.67;1797277;78;21015;-73
2021/04/02 10:19:11;;;;;;;17.70;12.82;;;;;;;6.03;81.35;98084.20;1797357;79;21117;-74
2021/04/02 10:21:37;;;;;;;19.67;12.95;;;;;;;5.94;81.59;98088.37;1797249;78;21098;-73
2021/04/02 10:24:04;;;;;;;16.80;12.13;;;;;;;5.88;81.84;98086.64;1797205;79;21157;-73
2021/04/02 10:26:30;;;;;;;17.62;11.70;;;;;;;5.84;81.31;98090.90;1797238;78;21502;-73
2021/04/02 10:28:56;;;;;;;21.23;13.25;;;;;;;5.83;81.75;98086.59;1797212;79;21133;-73
2021/04/02 10:31:22;;;;;;;17.55;12.35;;;;;;;5.95;81.48;98085.97;1797129;78;21250;-73
2021/04/02 10:33:49;;;;;;;19.48;12.85;;;;;;;6.02;81.67;98087.14;1797169;79;20976;-71
2021/04/02 10:36:15;;;;;;;17.35;13.70;;;;;;;6.10;81.02;98078.11;1797086;78;21090;-71
2021/04/02 10:38:41;;;;;;;17.60;12.63;;;;;;;6.21;80.78;98077.17;1797267;79;21150;-71
2021/04/02 10:41:08;;;;;;;19.80;13.08;;;;;;;6.20;80.01;98080.92;1797217;78;21490;-71
2021/04/02 10:43:34;;;;;;;17.62;11.85;;;;;;;6.08;79.32;98083.47;1797170;79;21188;-71
2021/04/02 10:46:01;;;;;;;20.17;13.88;;;;;;;6.20;79.92;98088.19;1797081;78;21090;-72
2021/04/02 10:48:27;;;;;;;22.80;18.62;;;;;;;6.27;80.10;98087.48;1797206;79;21145;-72
2021/04/02 10:50:53;;;;;;;22.95;14.35;;;;;;;6.27;79.93;98082.09;1797155;78;21510;-71
2021/04/02 10:53:20;;;;;;;19.48;13.40;;;;;;;6.18;79.85;98085.75;1797302;79;21488;-72
2021/04/02 10:55:46;;;;;;;23.73;16.52;;;;;;;6.05;79.23;98087.45;1789717;79;21199;-71
2021/04/02 10:58:12;;;;;;;23.47;15.75;;;;;;;6.06;80.00;98086.91;1785191;80;21546;-71
2021/04/02 11:00:39;;;;;;;21.62;15.68;;;;;;;6.04;80.71;98089.86;1785128;79;21509;-71
2021/04/02 11:03:06;;;;;;;20.37;12.68;;;;;;;6.00;80.12;98091.97;1785250;80;21079;-71
2021/04/02 11:05:33;;;;;;;19.73;13.75;;;;;;;5.87;80.28;98090.39;1785214;79;21134;-72
2021/04/02 11:07:59;;;;;;;20.40;14.23;;;;;;;5.97;80.24;98081.15;1785192;79;21275;-71
2021/04/02 11:10:25;;;;;;;22.50;15.80;;;;;;;6.11;79.97;98082.95;1785142;79;21468;-71
2021/04/02 11:12:52;;;;;;;23.10;14.95;;;;;;;6.37;79.54;98084.91;1785160;80;21149;-71
2021/04/02 11:15:19;;;;;;;19.27;13.48;;;;;;;6.49;79.02;98076.69;1785161;79;21086;-71
2021/04/02 11:17:46;;;;;;;19.52;13.05;;;;;;;6.71;77.91;98080.71;1785193;80;21075;-71
2021/04/02 11:20:15;;;;;;;17.90;13.22;;;;;;;6.56;76.57;98077.84;1785184;79;22234;-71
2021/04/02 11:22:41;;;;;;;;;;;;;;;6.58;77.39;98078.40;1787774;80;21099;-71
2021/04/02 11:25:09;;;;;;;22.75;15.90;;;;;;;6.69;77.18;98076.94;1785237;79;20528;-71
2021/04/02 11:27:36;;;;;;;22.00;13.98;;;;;;;6.90;76.95;98074.44;1785362;80;21106;-71
2021/04/02 11:30:04;;;;;;;20.60;14.15;;;;;;;7.00;75.89;98071.30;1785106;79;20994;-71
2021/04/02 11:32:31;;;;;;;21.68;14.78;;;;;;;7.00;75.46;98067.26;1785312;80;21515;-72
2021/04/02 11:34:57;;;;;;;30.32;18.10;;;;;;;6.96;74.45;98064.81;1785026;79;21431;-71
2021/04/02 11:37:23;;;;;;;19.70;13.93;;;;;;;7.39;75.08;98056.82;1785234;80;21523;-71